createdAt,value
2018-10-01T05:49:53.517Z,9.99
2018-10-01T05:50:29.458Z,10.09
2018-10-01T05:51:04.658Z,10.00
2018-10-01T05:51:40.148Z,10.00
2018-10-01T05:52:15.293Z,10.04
2018-10-01T05:52:50.642Z,9.94
2018-10-01T05:53:25.818Z,10.03
2018-10-01T05:54:01.385Z,9.96
2018-10-01T05:54:37.200Z,9.93
2018-10-01T05:55:12.490Z,9.97
2018-10-01T05:55:48.124Z,9.89
2018-10-01T05:56:23.172Z,9.97
2018-10-01T05:56:58.470Z,9.97
2018-10-01T05:57:33.854Z,9.91
2018-10-01T05:58:09.325Z,9.93
2018-10-01T05:58:44.558Z,9.93
2018-10-01T05:59:19.947Z,9.93
2018-10-01T05:59:55.318Z,9.89
2018-10-01T06:00:30.724Z,9.94
2018-10-01T06:01:06.358Z,9.88
2018-10-01T06:01:41.799Z,9.86
2018-10-01T06:02:17.250Z,9.96
2018-10-01T06:02:52.626Z,9.97
2018-10-01T06:03:28.208Z,9.99
2018-10-01T06:04:03.489Z,9.99
2018-10-01T06:04:38.923Z,10.00
2018-10-01T06:05:14.410Z,9.94
2018-10-01T06:05:49.650Z,9.99
2018-10-01T06:06:25.125Z,10.00
2018-10-01T06:07:00.758Z,9.99
2018-10-01T06:07:36.175Z,10.01
2018-10-01T06:08:11.651Z,10.00
2018-10-01T06:08:47.350Z,9.99
2018-10-01T06:09:22.960Z,9.97
2018-10-01T06:09:58.511Z,10.00
2018-10-01T06:10:34.041Z,9.96
2018-10-01T06:11:09.797Z,9.97
2018-10-01T06:11:46.165Z,9.97
2018-10-01T06:12:22.156Z,10.06
2018-10-01T06:12:57.528Z,10.01
2018-10-01T06:13:32.914Z,9.96
2018-10-01T06:14:08.435Z,9.93
2018-10-01T06:14:43.548Z,9.89
2018-10-01T06:15:19.138Z,10.03
2018-10-01T06:15:54.930Z,10.04
2018-10-01T06:16:30.539Z,10.00
2018-10-01T06:17:05.835Z,10.03
2018-10-01T06:17:41.179Z,10.04
2018-10-01T06:18:16.816Z,10.06
2018-10-01T06:18:52.098Z,9.99
2018-10-01T06:19:27.546Z,10.00
2018-10-01T06:20:02.984Z,10.00
2018-10-01T06:20:38.317Z,10.03
2018-10-01T06:21:13.713Z,9.97
2018-10-01T06:21:48.973Z,9.94
2018-10-01T06:22:24.365Z,9.97
2018-10-01T06:22:59.790Z,10.00
2018-10-01T06:23:35.235Z,10.06
2018-10-01T06:24:10.536Z,9.97
2018-10-01T06:24:46.166Z,10.06
2018-10-01T06:25:21.670Z,10.09
2018-10-01T06:25:57.309Z,10.14
2018-10-01T06:26:32.887Z,10.17
2018-10-01T06:27:08.324Z,10.12
2018-10-01T06:27:43.505Z,10.09
2018-10-01T06:28:19.061Z,10.07
2018-10-01T06:28:54.488Z,10.19
2018-10-01T06:29:29.850Z,10.28
2018-10-01T06:30:05.197Z,10.25
2018-10-01T06:30:40.481Z,10.34
2018-10-01T06:31:15.831Z,10.33
2018-10-01T06:31:51.358Z,10.37
2018-10-01T06:32:26.787Z,10.40
2018-10-01T06:33:01.990Z,10.36
2018-10-01T06:33:37.401Z,10.53
2018-10-01T06:34:12.718Z,10.34
2018-10-01T06:34:48.038Z,10.47
2018-10-01T06:35:23.424Z,10.46
2018-10-01T06:35:58.842Z,10.44
2018-10-01T06:36:34.176Z,10.52
2018-10-01T06:37:09.678Z,10.47
2018-10-01T06:37:45.017Z,10.39
2018-10-01T06:38:20.547Z,10.43
2018-10-01T06:38:56.085Z,10.60
2018-10-01T06:39:31.381Z,10.63
2018-10-01T06:40:06.647Z,10.46
2018-10-01T06:40:42.136Z,10.73
2018-10-01T06:41:17.427Z,10.52
2018-10-01T06:41:52.833Z,10.46
2018-10-01T06:42:28.441Z,10.73
2018-10-01T06:43:03.892Z,10.81
2018-10-01T06:43:39.258Z,10.95
2018-10-01T06:44:14.776Z,11.01
2018-10-01T06:44:50.018Z,11.13
2018-10-01T06:45:25.231Z,11.19
2018-10-01T06:46:00.556Z,10.74
2018-10-01T06:46:36.198Z,10.81
2018-10-01T06:47:11.475Z,11.02
2018-10-01T06:47:46.965Z,11.25
2018-10-01T06:48:22.304Z,11.16
2018-10-01T06:48:57.503Z,11.28
2018-10-01T06:49:33.009Z,11.31
2018-10-01T06:50:08.016Z,11.44
2018-10-01T06:50:43.450Z,11.47
2018-10-01T06:51:18.630Z,11.54
2018-10-01T06:51:53.839Z,11.57
2018-10-01T06:52:29.258Z,11.68
2018-10-01T06:53:04.974Z,11.83
2018-10-01T06:53:40.378Z,11.89
2018-10-01T06:54:15.767Z,11.71
2018-10-01T06:54:51.227Z,11.71
2018-10-01T06:55:26.718Z,12.06
2018-10-01T06:56:01.954Z,12.21
2018-10-01T06:56:37.390Z,12.37
2018-10-01T06:57:12.928Z,12.45
2018-10-01T06:57:48.430Z,12.45
2018-10-01T06:58:23.990Z,12.63
2018-10-01T06:58:59.630Z,12.62
2018-10-01T06:59:35.029Z,12.77
2018-10-01T07:00:10.538Z,12.84
2018-10-01T07:00:46.032Z,12.97
2018-10-01T07:01:21.499Z,13.06
2018-10-01T07:01:56.869Z,12.97
2018-10-01T07:02:32.184Z,13.14
2018-10-01T07:03:07.394Z,13.21
2018-10-01T07:03:43.054Z,12.46
2018-10-01T07:04:18.577Z,12.44
2018-10-01T07:04:53.906Z,12.56
2018-10-01T07:05:29.096Z,12.42
2018-10-01T07:06:04.501Z,12.60
2018-10-01T07:06:39.831Z,12.60
2018-10-01T07:07:15.329Z,12.62
2018-10-01T07:07:50.560Z,12.64
2018-10-01T07:08:25.869Z,12.71
2018-10-01T07:09:01.382Z,12.71
2018-10-01T07:09:36.925Z,12.75
2018-10-01T07:10:12.129Z,12.75
2018-10-01T07:10:47.389Z,12.78
2018-10-01T07:11:22.678Z,12.66
2018-10-01T07:11:58.055Z,12.78
2018-10-01T07:12:33.481Z,12.79
2018-10-01T07:13:08.704Z,12.84
2018-10-01T07:13:44.206Z,12.96
2018-10-01T07:14:19.557Z,12.96
2018-10-01T07:14:54.673Z,13.03
2018-10-01T07:15:29.992Z,13.14
2018-10-01T07:16:05.417Z,13.17
2018-10-01T07:16:40.748Z,13.21
2018-10-01T07:17:16.424Z,13.29
2018-10-01T07:17:51.662Z,13.37
2018-10-01T07:18:26.858Z,13.30
2018-10-01T07:19:02.473Z,13.30
2018-10-01T07:19:37.893Z,13.43
2018-10-01T07:20:13.249Z,13.41
2018-10-01T07:20:48.872Z,13.51
2018-10-01T07:21:24.447Z,13.55
2018-10-01T07:21:59.623Z,13.54
2018-10-01T07:22:34.901Z,13.54
2018-10-01T07:23:10.341Z,13.54
2018-10-01T07:23:45.661Z,13.63
2018-10-01T07:24:21.179Z,13.69
2018-10-01T07:24:56.627Z,13.77
2018-10-01T07:25:31.836Z,13.79
2018-10-01T07:26:07.172Z,13.88
2018-10-01T07:26:42.393Z,13.89
2018-10-01T07:27:17.940Z,13.95
2018-10-01T07:27:53.395Z,13.88
2018-10-01T07:28:28.802Z,14.02
2018-10-01T07:29:04.379Z,14.10
2018-10-01T07:29:39.869Z,14.09
2018-10-01T07:30:15.396Z,14.09
2018-10-01T07:30:50.818Z,14.07
2018-10-01T07:31:26.371Z,14.13
2018-10-01T07:32:01.907Z,14.17
2018-10-01T07:32:37.515Z,14.14
2018-10-01T07:33:13.122Z,14.20
2018-10-01T07:33:48.543Z,14.32
2018-10-01T07:34:24.063Z,14.21
2018-10-01T07:34:59.268Z,14.27
2018-10-01T07:35:34.699Z,14.38
2018-10-01T07:36:10.333Z,14.32
2018-10-01T07:36:45.957Z,14.46
2018-10-01T07:37:21.170Z,14.49
2018-10-01T07:37:56.474Z,14.35
2018-10-01T07:38:31.618Z,14.42
2018-10-01T07:39:07.384Z,14.46
2018-10-01T07:39:42.572Z,14.54
2018-10-01T07:40:17.971Z,14.57
2018-10-01T07:40:53.208Z,14.65
2018-10-01T07:41:28.746Z,14.80
2018-10-01T07:42:04.386Z,14.67
2018-10-01T07:42:39.591Z,14.81
2018-10-01T07:43:14.755Z,14.87
2018-10-01T07:43:50.083Z,14.83
2018-10-01T07:44:25.536Z,14.93
2018-10-01T07:45:00.759Z,15.02
2018-10-01T07:45:35.934Z,15.03
2018-10-01T07:46:11.743Z,15.09
2018-10-01T07:46:49.664Z,15.13
2018-10-01T07:47:25.074Z,15.17
2018-10-01T07:48:00.667Z,15.26
2018-10-01T07:48:36.013Z,15.31
2018-10-01T07:49:11.300Z,15.42
2018-10-01T07:49:46.548Z,15.39
2018-10-01T07:50:21.793Z,15.48
2018-10-01T07:50:57.207Z,15.43
2018-10-01T07:51:32.489Z,15.43
2018-10-01T07:52:07.909Z,15.52
2018-10-01T07:52:43.233Z,15.49
2018-10-01T07:53:18.668Z,15.61
2018-10-01T07:53:53.970Z,15.59
2018-10-01T07:54:29.274Z,15.66
2018-10-01T07:55:04.276Z,15.56
2018-10-01T07:55:39.426Z,15.64
2018-10-01T07:56:15.121Z,15.64
2018-10-01T07:56:50.788Z,15.67
2018-10-01T07:57:26.346Z,15.79
2018-10-01T07:58:01.938Z,15.75
2018-10-01T07:58:37.238Z,15.84
2018-10-01T07:59:12.610Z,16.00
2018-10-01T07:59:48.208Z,15.94
2018-10-01T08:00:23.831Z,16.03
2018-10-01T08:00:59.384Z,15.99
2018-10-01T08:01:34.745Z,15.99
2018-10-01T08:02:10.318Z,16.04
2018-10-01T08:02:45.584Z,16.06
2018-10-01T08:03:20.916Z,15.99
2018-10-01T08:03:56.429Z,16.07
2018-10-01T08:04:31.761Z,16.20
2018-10-01T08:05:07.170Z,16.11
2018-10-01T08:05:42.816Z,16.15
2018-10-01T08:06:18.369Z,16.07
2018-10-01T08:06:53.572Z,16.12
2018-10-01T08:07:29.389Z,16.18
2018-10-01T08:08:04.729Z,16.15
2018-10-01T08:08:40.141Z,16.04
2018-10-01T08:09:15.328Z,16.14
2018-10-01T08:09:51.062Z,16.25
2018-10-01T08:10:26.363Z,16.26
2018-10-01T08:11:01.913Z,16.49
2018-10-01T08:11:37.473Z,16.48
2018-10-01T08:12:12.892Z,16.65
2018-10-01T08:12:48.291Z,16.75
2018-10-01T08:13:23.886Z,16.88
2018-10-01T08:13:59.208Z,17.06
2018-10-01T08:14:34.563Z,17.23
2018-10-01T08:15:09.650Z,17.23
2018-10-01T08:15:44.962Z,17.35
2018-10-01T08:16:19.894Z,17.38
2018-10-01T08:16:55.202Z,17.51
2018-10-01T08:17:30.518Z,17.50
2018-10-01T08:18:05.945Z,17.35
2018-10-01T08:18:41.370Z,17.44
2018-10-01T08:19:16.726Z,17.47
2018-10-01T08:19:52.063Z,17.48
2018-10-01T08:20:27.700Z,17.40
2018-10-01T08:21:02.947Z,17.25
2018-10-01T08:21:38.596Z,17.38
2018-10-01T08:22:14.111Z,17.33
2018-10-01T08:22:49.333Z,17.38
2018-10-01T08:23:24.872Z,17.47
2018-10-01T08:24:00.263Z,17.38
2018-10-01T08:24:35.617Z,17.33
2018-10-01T08:25:11.025Z,17.36
2018-10-01T08:25:47.578Z,17.46
2018-10-01T08:26:23.452Z,17.54
2018-10-01T08:26:58.500Z,17.67
2018-10-01T08:27:34.007Z,17.63
2018-10-01T08:28:09.341Z,17.66
2018-10-01T08:28:44.656Z,17.76
2018-10-01T08:29:20.439Z,17.84
2018-10-01T08:29:55.882Z,18.09
2018-10-01T08:30:30.876Z,18.55
2018-10-01T08:31:06.214Z,18.87
2018-10-01T08:31:41.534Z,18.98
2018-10-01T08:32:16.671Z,19.01
2018-10-01T08:32:52.192Z,18.94
2018-10-01T08:33:27.539Z,19.06
2018-10-01T08:34:02.932Z,19.05
2018-10-01T08:34:38.367Z,18.98
2018-10-01T08:35:13.540Z,19.01
2018-10-01T08:35:48.909Z,19.02
2018-10-01T08:36:24.492Z,19.10
2018-10-01T08:37:00.114Z,19.24
2018-10-01T08:37:35.975Z,19.31
2018-10-01T08:38:11.747Z,19.35
2018-10-01T08:38:47.305Z,19.38
2018-10-01T08:39:22.590Z,19.40
2018-10-01T08:39:58.023Z,19.35
2018-10-01T08:40:33.375Z,19.33
2018-10-01T08:41:08.811Z,19.40
2018-10-01T08:41:44.034Z,19.55
2018-10-01T08:42:19.665Z,19.72
2018-10-01T08:42:54.934Z,19.91
2018-10-01T08:43:30.588Z,19.97
2018-10-01T08:44:05.881Z,19.95
2018-10-01T08:44:41.151Z,20.00
2018-10-01T08:45:16.483Z,20.06
2018-10-01T08:45:51.845Z,20.23
2018-10-01T08:46:27.591Z,20.47
2018-10-01T08:47:03.434Z,20.39
2018-10-01T08:47:39.119Z,20.27
2018-10-01T08:48:14.501Z,20.25
2018-10-01T08:48:49.875Z,20.25
2018-10-01T08:49:25.176Z,20.24
2018-10-01T08:50:00.842Z,20.10
2018-10-01T08:50:36.368Z,20.28
2018-10-01T08:51:11.757Z,20.21
2018-10-01T08:51:47.115Z,20.39
2018-10-01T08:52:22.338Z,20.46
2018-10-01T08:52:57.921Z,20.56
2018-10-01T08:53:33.504Z,20.50
2018-10-01T08:54:08.801Z,20.58
2018-10-01T08:54:44.221Z,20.58
2018-10-01T08:55:19.559Z,20.61
2018-10-01T08:55:55.120Z,20.69
2018-10-01T08:56:31.086Z,20.72
2018-10-01T08:57:06.257Z,20.77
2018-10-01T08:57:41.685Z,20.72
2018-10-01T08:58:17.324Z,20.76
2018-10-01T08:58:52.819Z,20.68
2018-10-01T08:59:28.344Z,20.79
2018-10-01T09:00:03.896Z,20.59
2018-10-01T09:00:39.133Z,20.72
2018-10-01T09:01:14.685Z,21.01
2018-10-01T09:01:50.132Z,21.05
2018-10-01T09:02:25.800Z,21.13
2018-10-01T09:03:01.416Z,21.16
2018-10-01T09:03:37.045Z,21.16
2018-10-01T09:04:12.292Z,21.09
2018-10-01T09:04:48.100Z,21.06
2018-10-01T09:05:23.660Z,21.23
2018-10-01T09:05:59.061Z,21.29
2018-10-01T09:06:34.721Z,21.30
2018-10-01T09:07:09.941Z,21.48
2018-10-01T09:07:45.242Z,21.48
2018-10-01T09:08:21.035Z,21.27
2018-10-01T09:08:56.212Z,21.17
2018-10-01T09:09:31.892Z,21.08
2018-10-01T09:10:07.115Z,21.01
2018-10-01T09:10:42.601Z,20.81
2018-10-01T09:11:17.988Z,20.74
2018-10-01T09:11:53.085Z,20.50
2018-10-01T09:12:28.424Z,20.42
2018-10-01T09:13:03.625Z,20.20
2018-10-01T09:13:39.164Z,19.79
2018-10-01T09:14:14.571Z,19.50
2018-10-01T09:14:49.993Z,19.42
2018-10-01T09:15:25.554Z,19.28
2018-10-01T09:16:01.114Z,19.08
2018-10-01T09:16:36.759Z,19.11
2018-10-01T09:17:12.085Z,18.97
2018-10-01T09:17:47.652Z,19.01
2018-10-01T09:18:22.859Z,18.86
2018-10-01T09:18:58.270Z,18.87
2018-10-01T09:19:33.822Z,19.02
2018-10-01T09:20:09.443Z,19.08
2018-10-01T09:20:44.681Z,18.98
2018-10-01T09:21:20.211Z,19.05
2018-10-01T09:21:55.656Z,19.05
2018-10-01T09:22:31.186Z,18.94
2018-10-01T09:23:06.555Z,18.98
2018-10-01T09:23:41.863Z,19.02
2018-10-01T09:24:17.326Z,18.92
2018-10-01T09:24:52.776Z,18.99
2018-10-01T09:25:28.228Z,18.80
2018-10-01T09:26:03.656Z,18.84
2018-10-01T09:26:39.046Z,18.80
2018-10-01T09:27:14.553Z,18.99
2018-10-01T09:27:50.105Z,19.05
2018-10-01T09:28:25.428Z,18.92
2018-10-01T09:29:00.665Z,18.84
2018-10-01T09:29:36.089Z,18.90
2018-10-01T09:30:11.150Z,18.98
2018-10-01T09:30:46.511Z,18.86
2018-10-01T09:31:22.019Z,18.98
2018-10-01T09:31:57.523Z,18.98
2018-10-01T09:32:33.150Z,18.92
2018-10-01T09:33:08.486Z,18.76
2018-10-01T09:33:43.983Z,18.65
2018-10-01T09:34:19.256Z,18.59
2018-10-01T09:34:54.715Z,18.50
2018-10-01T09:35:29.852Z,18.49
2018-10-01T09:36:05.249Z,18.52
2018-10-01T09:36:40.923Z,18.22
2018-10-01T09:37:16.650Z,18.06
2018-10-01T09:37:52.075Z,18.03
2018-10-01T09:38:27.438Z,17.88
2018-10-01T09:39:02.714Z,17.78
2018-10-01T09:39:38.414Z,17.78
2018-10-01T09:40:13.824Z,17.69
2018-10-01T09:40:48.863Z,17.57
2018-10-01T09:41:24.137Z,17.48
2018-10-01T09:41:59.430Z,17.46
2018-10-01T09:42:34.834Z,17.51
2018-10-01T09:43:10.023Z,17.44
2018-10-01T09:43:45.261Z,17.41
2018-10-01T09:44:20.563Z,17.44
2018-10-01T09:44:55.825Z,17.63
2018-10-01T09:45:30.959Z,17.79
2018-10-01T09:46:06.201Z,17.94
2018-10-01T09:46:41.536Z,18.17
2018-10-01T09:47:16.828Z,18.37
2018-10-01T09:47:52.735Z,18.54
2018-10-01T09:48:28.091Z,18.47
2018-10-01T09:49:03.538Z,18.27
2018-10-01T09:49:38.861Z,18.13
2018-10-01T09:50:14.667Z,18.00
2018-10-01T09:50:50.350Z,17.88
2018-10-01T09:51:25.913Z,17.74
2018-10-01T09:52:01.254Z,17.66
2018-10-01T09:52:36.709Z,17.51
2018-10-01T09:53:12.189Z,17.57
2018-10-01T09:53:47.641Z,17.59
2018-10-01T09:54:23.086Z,17.69
2018-10-01T09:54:58.501Z,17.85
2018-10-01T09:55:33.950Z,18.00
2018-10-01T09:56:09.382Z,18.33
2018-10-01T09:56:44.514Z,18.61
2018-10-01T09:57:20.048Z,18.74
2018-10-01T09:57:55.394Z,18.76
2018-10-01T09:58:30.850Z,18.68
2018-10-01T09:59:06.370Z,18.72
2018-10-01T09:59:41.678Z,18.59
2018-10-01T10:00:16.999Z,18.52
2018-10-01T10:00:52.351Z,18.37
2018-10-01T10:01:27.493Z,18.19
2018-10-01T10:02:02.972Z,18.07
2018-10-01T10:02:38.552Z,18.03
2018-10-01T10:03:13.855Z,17.78
2018-10-01T10:03:49.636Z,17.53
2018-10-01T10:04:25.117Z,17.25
2018-10-01T10:05:00.414Z,17.06
2018-10-01T10:05:35.814Z,16.99
2018-10-01T10:06:11.150Z,16.98
2018-10-01T10:06:46.686Z,16.93
2018-10-01T10:07:22.060Z,16.89
2018-10-01T10:07:57.925Z,16.73
2018-10-01T10:08:33.594Z,16.67
2018-10-01T10:09:08.793Z,16.65
2018-10-01T10:09:44.697Z,16.50
2018-10-01T10:10:20.313Z,16.40
2018-10-01T10:10:55.836Z,16.30
2018-10-01T10:11:31.354Z,16.18
2018-10-01T10:12:06.613Z,16.11
2018-10-01T10:12:42.041Z,16.11
2018-10-01T10:13:17.261Z,16.12
2018-10-01T10:13:52.627Z,16.12
2018-10-01T10:14:28.097Z,16.18
2018-10-01T10:15:03.328Z,16.16
2018-10-01T10:15:38.690Z,16.20
2018-10-01T10:16:14.095Z,16.18
2018-10-01T10:16:49.567Z,16.12
2018-10-01T10:17:25.063Z,16.25
2018-10-01T10:18:00.505Z,16.27
2018-10-01T10:18:35.823Z,16.45
2018-10-01T10:19:11.460Z,16.70
2018-10-01T10:19:46.717Z,16.85
2018-10-01T10:20:22.178Z,16.95
2018-10-01T10:20:57.597Z,17.23
2018-10-01T10:21:33.066Z,17.33
2018-10-01T10:22:08.423Z,17.54
2018-10-01T10:22:43.642Z,17.59
2018-10-01T10:23:18.990Z,17.78
2018-10-01T10:23:54.400Z,17.79
2018-10-01T10:24:29.973Z,17.78
2018-10-01T10:25:05.298Z,17.85
2018-10-01T10:25:40.736Z,17.88
2018-10-01T10:26:16.132Z,17.87
2018-10-01T10:26:51.284Z,17.87
2018-10-01T10:27:26.623Z,17.95
2018-10-01T10:28:02.087Z,17.89
2018-10-01T10:28:37.651Z,17.87
2018-10-01T10:29:12.819Z,17.81
2018-10-01T10:29:48.267Z,17.88
2018-10-01T10:30:23.809Z,17.71
2018-10-01T10:30:59.628Z,17.67
2018-10-01T10:31:35.083Z,17.63
2018-10-01T10:32:10.447Z,17.59
2018-10-01T10:32:45.839Z,17.55
2018-10-01T10:33:21.205Z,17.38
2018-10-01T10:33:56.457Z,17.35
2018-10-01T10:34:31.756Z,17.44
2018-10-01T10:35:07.471Z,17.41
2018-10-01T10:35:42.861Z,17.32
2018-10-01T10:36:18.095Z,17.20
2018-10-01T10:36:53.167Z,17.28
2018-10-01T10:37:28.603Z,17.18
2018-10-01T10:38:03.960Z,17.04
2018-10-01T10:38:39.458Z,17.17
2018-10-01T10:39:14.843Z,17.13
2018-10-01T10:39:50.282Z,17.06
2018-10-01T10:40:25.544Z,17.00
2018-10-01T10:41:00.976Z,16.88
2018-10-01T10:41:36.568Z,16.90
2018-10-01T10:42:11.762Z,16.77
2018-10-01T10:42:46.970Z,16.77
2018-10-01T10:43:22.434Z,16.62
2018-10-01T10:43:57.911Z,16.53
2018-10-01T10:44:33.481Z,16.49
2018-10-01T10:45:08.902Z,16.49
2018-10-01T10:45:44.330Z,16.42
2018-10-01T10:46:19.914Z,16.41
2018-10-01T10:46:55.473Z,16.48
2018-10-01T10:47:30.964Z,16.42
2018-10-01T10:48:06.485Z,16.41
2018-10-01T10:48:42.230Z,16.41
2018-10-01T10:49:17.467Z,16.44
2018-10-01T10:49:53.417Z,16.30
2018-10-01T10:50:28.533Z,16.30
2018-10-01T10:51:03.962Z,16.30
2018-10-01T10:51:39.412Z,16.33
2018-10-01T10:52:14.640Z,16.27
2018-10-01T10:52:50.417Z,16.18
2018-10-01T10:53:25.864Z,16.04
2018-10-01T10:54:01.628Z,15.94
2018-10-01T10:54:36.933Z,15.99
2018-10-01T10:55:12.267Z,15.93
2018-10-01T10:55:47.574Z,16.01
2018-10-01T10:56:22.988Z,15.96
2018-10-01T10:56:58.266Z,15.89
2018-10-01T10:57:33.777Z,16.03
2018-10-01T10:58:09.074Z,16.00
2018-10-01T10:58:44.303Z,15.89
2018-10-01T10:59:19.708Z,15.94
2018-10-01T10:59:55.082Z,15.86
2018-10-01T11:00:30.426Z,15.89
2018-10-01T11:01:05.845Z,15.96
2018-10-01T11:01:41.490Z,15.76
2018-10-01T11:02:16.738Z,15.97
2018-10-01T11:02:52.055Z,15.96
2018-10-01T11:03:27.766Z,15.96
2018-10-01T11:04:03.086Z,15.88
2018-10-01T11:04:38.554Z,16.07
2018-10-01T11:05:13.681Z,16.15
2018-10-01T11:05:48.933Z,16.07
2018-10-01T11:06:24.452Z,16.23
2018-10-01T11:06:59.971Z,16.34
2018-10-01T11:07:35.396Z,16.42
2018-10-01T11:08:10.908Z,16.44
2018-10-01T11:08:45.992Z,16.62
2018-10-01T11:09:21.460Z,16.58
2018-10-01T11:09:56.676Z,16.71
2018-10-01T11:10:32.204Z,16.68
2018-10-01T11:11:07.787Z,16.44
2018-10-01T11:11:43.117Z,16.42
2018-10-01T11:12:18.259Z,16.48
2018-10-01T11:12:53.474Z,16.45
2018-10-01T11:13:28.531Z,16.25
2018-10-01T11:14:04.038Z,16.14
2018-10-01T11:14:39.626Z,16.03
2018-10-01T11:15:14.970Z,15.94
2018-10-01T11:15:50.112Z,15.97
2018-10-01T11:16:25.616Z,15.78
2018-10-01T11:17:01.644Z,15.75
2018-10-01T11:17:37.422Z,15.59
2018-10-01T11:18:13.008Z,15.30
2018-10-01T11:18:48.266Z,15.26
2018-10-01T11:19:23.744Z,15.09
2018-10-01T11:19:58.977Z,15.02
2018-10-01T11:20:34.404Z,14.78
2018-10-01T11:21:09.753Z,14.84
2018-10-01T11:21:45.134Z,14.69
2018-10-01T11:22:20.481Z,14.67
2018-10-01T11:22:55.732Z,14.56
2018-10-01T11:23:31.118Z,14.62
2018-10-01T11:24:06.342Z,14.68
2018-10-01T11:24:41.768Z,14.72
2018-10-01T11:25:17.166Z,14.74
2018-10-01T11:25:52.200Z,14.88
2018-10-01T11:26:27.681Z,15.06
2018-10-01T11:27:03.030Z,15.11
2018-10-01T11:27:38.667Z,15.13
2018-10-01T11:28:13.742Z,15.26
2018-10-01T11:28:49.700Z,15.35
2018-10-01T11:29:25.114Z,15.43
2018-10-01T11:30:00.462Z,15.56
2018-10-01T11:30:35.713Z,15.39
2018-10-01T11:31:10.918Z,15.48
2018-10-01T11:31:46.265Z,15.63
2018-10-01T11:32:21.401Z,15.79
2018-10-01T11:32:56.717Z,15.79
2018-10-01T11:33:32.397Z,15.86
2018-10-01T11:34:07.795Z,15.97
2018-10-01T11:34:43.366Z,16.01
2018-10-01T11:35:18.513Z,15.99
2018-10-01T11:35:54.087Z,16.01
2018-10-01T11:36:29.411Z,16.14
2018-10-01T11:37:04.544Z,16.20
2018-10-01T11:37:40.141Z,16.18
2018-10-01T11:38:15.185Z,16.20
2018-10-01T11:38:50.879Z,16.34
2018-10-01T11:39:26.037Z,16.35
2018-10-01T11:40:01.246Z,16.41
2018-10-01T11:40:36.669Z,16.44
2018-10-01T11:41:11.954Z,16.58
2018-10-01T11:41:47.219Z,16.56
2018-10-01T11:42:22.791Z,16.60
2018-10-01T11:42:58.149Z,16.70
2018-10-01T11:43:33.322Z,16.50
2018-10-01T11:44:08.528Z,16.65
2018-10-01T11:44:43.974Z,16.55
2018-10-01T11:45:19.298Z,16.65
2018-10-01T11:45:54.993Z,16.71
2018-10-01T11:46:30.535Z,16.80
2018-10-01T11:47:05.998Z,16.83
2018-10-01T11:47:41.397Z,16.89
2018-10-01T11:48:16.887Z,16.81
2018-10-01T11:48:52.398Z,16.75
2018-10-01T11:49:27.893Z,16.74
2018-10-01T11:50:03.703Z,16.62
2018-10-01T11:50:39.184Z,16.60
2018-10-01T11:51:14.583Z,16.62
2018-10-01T11:51:49.699Z,16.53
2018-10-01T11:52:25.030Z,16.56
2018-10-01T11:53:00.471Z,16.58
2018-10-01T11:53:36.090Z,16.68
2018-10-01T11:54:11.359Z,16.71
2018-10-01T11:54:46.782Z,16.80
2018-10-01T11:55:22.004Z,16.73
2018-10-01T11:55:57.343Z,16.73
2018-10-01T11:56:32.685Z,16.89
2018-10-01T11:57:08.213Z,16.81
2018-10-01T11:57:43.671Z,16.89
2018-10-01T11:58:18.795Z,16.81
2018-10-01T11:58:54.301Z,16.93
2018-10-01T11:59:29.511Z,16.89
2018-10-01T12:00:04.717Z,16.81
2018-10-01T12:00:40.026Z,16.78
2018-10-01T12:01:15.451Z,16.77
2018-10-01T12:01:50.993Z,16.59
2018-10-01T12:02:26.417Z,16.59
2018-10-01T12:03:01.798Z,16.49
2018-10-01T12:03:37.379Z,16.31
2018-10-01T12:04:12.884Z,16.25
2018-10-01T12:04:48.261Z,16.15
2018-10-01T12:05:23.466Z,16.23
2018-10-01T12:05:58.880Z,16.09
2018-10-01T12:06:34.331Z,15.97
2018-10-01T12:07:09.681Z,15.88
2018-10-01T12:07:45.022Z,15.74
2018-10-01T12:08:20.338Z,15.59
2018-10-01T12:08:55.631Z,15.68
2018-10-01T12:09:31.172Z,15.59
2018-10-01T12:10:06.636Z,15.57
2018-10-01T12:10:41.871Z,15.56
2018-10-01T12:11:17.339Z,15.43
2018-10-01T12:11:52.689Z,15.41
2018-10-01T12:12:28.235Z,15.38
2018-10-01T12:13:03.791Z,15.30
2018-10-01T12:13:39.206Z,15.30
2018-10-01T12:14:14.645Z,15.30
2018-10-01T12:14:50.377Z,15.28
2018-10-01T12:15:25.975Z,15.27
2018-10-01T12:16:01.455Z,15.26
2018-10-01T12:16:36.668Z,15.24
2018-10-01T12:17:12.192Z,15.23
2018-10-01T12:17:47.945Z,15.26
2018-10-01T12:18:23.208Z,15.33
2018-10-01T12:18:58.675Z,15.27
2018-10-01T12:19:34.019Z,15.35
2018-10-01T12:20:09.408Z,15.38
2018-10-01T12:20:44.692Z,15.35
2018-10-01T12:21:20.014Z,15.33
2018-10-01T12:21:55.550Z,15.43
2018-10-01T12:22:30.858Z,15.38
2018-10-01T12:23:06.383Z,15.39
2018-10-01T12:23:42.193Z,15.45
2018-10-01T12:24:17.514Z,15.63
2018-10-01T12:24:53.057Z,15.63
2018-10-01T12:25:28.185Z,15.70
2018-10-01T12:26:03.618Z,15.70
2018-10-01T12:26:38.989Z,15.85
2018-10-01T12:27:14.652Z,15.84
2018-10-01T12:27:50.014Z,15.96
2018-10-01T12:28:25.475Z,15.85
2018-10-01T12:29:01.180Z,15.89
2018-10-01T12:29:36.548Z,15.82
2018-10-01T12:30:11.933Z,15.81
2018-10-01T12:30:47.728Z,15.79
2018-10-01T12:31:22.928Z,15.86
2018-10-01T12:31:58.437Z,15.89
2018-10-01T12:32:33.789Z,15.89
2018-10-01T12:33:09.281Z,15.92
2018-10-01T12:33:44.665Z,15.99
2018-10-01T12:34:20.382Z,15.94
2018-10-01T12:34:55.862Z,15.94
2018-10-01T12:35:31.053Z,15.88
2018-10-01T12:36:06.263Z,16.04
2018-10-01T12:36:41.713Z,16.04
2018-10-01T12:37:17.340Z,16.14
2018-10-01T12:37:52.577Z,16.18
2018-10-01T12:38:28.336Z,16.23
2018-10-01T12:39:03.856Z,16.27
2018-10-01T12:39:39.511Z,16.20
2018-10-01T12:40:14.766Z,16.15
2018-10-01T12:40:50.065Z,16.09
2018-10-01T12:41:25.302Z,16.15
2018-10-01T12:42:00.935Z,16.11
2018-10-01T12:42:36.748Z,16.04
2018-10-01T12:43:12.276Z,16.14
2018-10-01T12:43:47.738Z,15.99
2018-10-01T12:44:24.232Z,15.96
2018-10-01T12:44:58.922Z,16.00
2018-10-01T12:45:34.504Z,15.92
2018-10-01T12:46:09.930Z,15.92
2018-10-01T12:46:45.107Z,15.81
2018-10-01T12:47:20.283Z,15.82
2018-10-01T12:47:55.915Z,15.92
2018-10-01T12:48:31.344Z,15.92
2018-10-01T12:49:06.480Z,15.89
2018-10-01T12:49:42.004Z,15.93
2018-10-01T12:50:17.297Z,15.99
2018-10-01T12:50:52.766Z,15.89
2018-10-01T12:51:28.178Z,15.94
2018-10-01T12:52:03.379Z,15.93
2018-10-01T12:52:38.698Z,15.93
2018-10-01T12:53:14.351Z,16.03
2018-10-01T12:53:50.831Z,16.14
2018-10-01T12:54:26.656Z,16.16
2018-10-01T12:55:02.215Z,16.25
2018-10-01T12:55:37.540Z,16.35
2018-10-01T12:56:13.081Z,16.26
2018-10-01T12:56:48.590Z,16.30
2018-10-01T12:57:24.091Z,16.33
2018-10-01T12:57:59.210Z,16.35
2018-10-01T12:58:34.832Z,16.45
2018-10-01T12:59:10.610Z,16.48
2018-10-01T12:59:45.949Z,16.60
2018-10-01T13:00:21.815Z,16.65
2018-10-01T13:00:57.423Z,16.70
2018-10-01T13:01:32.769Z,16.81
2018-10-01T13:02:08.397Z,16.73
2018-10-01T13:02:43.835Z,16.80
2018-10-01T13:03:18.975Z,16.86
2018-10-01T13:03:54.419Z,16.89
2018-10-01T13:04:29.886Z,16.93
2018-10-01T13:05:05.460Z,16.93
2018-10-01T13:05:41.017Z,16.89
2018-10-01T13:06:16.461Z,16.81
2018-10-01T13:06:51.671Z,16.85
2018-10-01T13:07:26.854Z,16.85
2018-10-01T13:08:02.542Z,16.70
2018-10-01T13:08:38.098Z,16.74
2018-10-01T13:09:14.064Z,16.65
2018-10-01T13:09:49.512Z,16.63
2018-10-01T13:10:25.045Z,16.85
2018-10-01T13:11:00.463Z,16.85
2018-10-01T13:11:36.002Z,16.86
2018-10-01T13:12:11.492Z,16.89
2018-10-01T13:12:46.820Z,16.85
2018-10-01T13:13:22.524Z,16.86
2018-10-01T13:13:57.856Z,16.75
2018-10-01T13:14:33.725Z,16.71
2018-10-01T13:15:09.058Z,16.56
2018-10-01T13:15:44.406Z,16.42
2018-10-01T13:16:19.663Z,16.49
2018-10-01T13:16:55.180Z,16.34
2018-10-01T13:17:30.595Z,16.31
2018-10-01T13:18:06.240Z,16.16
2018-10-01T13:18:41.758Z,16.25
2018-10-01T13:19:16.864Z,16.18
2018-10-01T13:19:52.405Z,16.03
2018-10-01T13:20:27.525Z,15.93
2018-10-01T13:21:02.716Z,16.00
2018-10-01T13:21:39.126Z,15.93
2018-10-01T13:22:14.611Z,15.85
2018-10-01T13:22:49.857Z,15.75
2018-10-01T13:23:25.064Z,15.81
2018-10-01T13:24:00.580Z,15.75
2018-10-01T13:24:36.118Z,15.64
2018-10-01T13:25:11.426Z,15.49
2018-10-01T13:25:46.825Z,15.46
2018-10-01T13:26:22.094Z,15.56